sensor_id;sensor_type;location;lat;lon;timestamp;temperature;humidity
1411;DHT22;700;51.906;8.404;2023-06-22T00:00:56;23.60;99.90
1411;DHT22;700;51.906;8.404;2023-06-22T00:05:57;23.60;99.90
1411;DHT22;700;51.906;8.404;2023-06-22T00:11:00;23.50;99.90
1411;DHT22;700;51.906;8.404;2023-06-22T00:16:00;23.50;99.90
1411;DHT22;700;51.906;8.404;2023-06-22T00:21:03;23.50;99.90
1411;DHT22;700;51.906;8.404;2023-06-22T00:26:07;23.50;99.90
1411;DHT22;700;51.906;8.404;2023-06-22T00:31:07;23.60;99.90
1411;DHT22;700;51.906;8.404;2023-06-22T00:36:10;23.50;99.90
1411;DHT22;700;51.906;8.404;2023-06-22T00:41:13;23.30;99.90
1411;DHT22;700;51.906;8.404;2023-06-22T00:46:14;23.40;99.90
1411;DHT22;700;51.906;8.404;2023-06-22T00:51:18;23.40;99.90
1411;DHT22;700;51.906;8.404;2023-06-22T00:56:24;23.50;99.90
1411;DHT22;700;51.906;8.404;2023-06-22T01:01:30;23.40;99.90
1411;DHT22;700;51.906;8.404;2023-06-22T01:06:38;23.40;99.90
1411;DHT22;700;51.906;8.404;2023-06-22T01:11:45;23.20;99.90
1411;DHT22;700;51.906;8.404;2023-06-22T01:16:53;23.30;99.90
1411;DHT22;700;51.906;8.404;2023-06-22T01:21:56;23.30;99.90
1411;DHT22;700;51.906;8.404;2023-06-22T01:32:34;23.30;99.90
1411;DHT22;700;51.906;8.404;2023-06-22T01:37:36;23.00;99.90
1411;DHT22;700;51.906;8.404;2023-06-22T01:42:37;22.90;99.90
1411;DHT22;700;51.906;8.404;2023-06-22T01:47:42;22.90;99.90
1411;DHT22;700;51.906;8.404;2023-06-22T01:52:42;22.90;99.90
1411;DHT22;700;51.906;8.404;2023-06-22T01:57:43;23.10;99.90
1411;DHT22;700;51.906;8.404;2023-06-22T02:02:53;23.10;99.90
1411;DHT22;700;51.906;8.404;2023-06-22T02:13:09;23.00;99.90
1411;DHT22;700;51.906;8.404;2023-06-22T02:18:10;23.00;99.90
1411;DHT22;700;51.906;8.404;2023-06-22T02:23:13;23.00;99.90
1411;DHT22;700;51.906;8.404;2023-06-22T02:28:18;22.90;99.90
1411;DHT22;700;51.906;8.404;2023-06-22T02:33:21;23.00;99.90
1411;DHT22;700;51.906;8.404;2023-06-22T02:38:21;23.10;99.90
1411;DHT22;700;51.906;8.404;2023-06-22T02:43:25;23.10;99.90
1411;DHT22;700;51.906;8.404;2023-06-22T02:48:25;23.10;99.90
1411;DHT22;700;51.906;8.404;2023-06-22T02:53:26;23.10;99.90
1411;DHT22;700;51.906;8.404;2023-06-22T02:58:27;23.20;99.90
1411;DHT22;700;51.906;8.404;2023-06-22T03:03:30;23.20;99.90
1411;DHT22;700;51.906;8.404;2023-06-22T03:08:33;23.10;99.90
1411;DHT22;700;51.906;8.404;2023-06-22T03:13:34;23.10;99.90
1411;DHT22;700;51.906;8.404;2023-06-22T03:18:35;23.10;99.90
1411;DHT22;700;51.906;8.404;2023-06-22T03:23:35;23.00;99.90
1411;DHT22;700;51.906;8.404;2023-06-22T03:28:37;23.00;99.90
1411;DHT22;700;51.906;8.404;2023-06-22T03:33:38;23.00;99.90
1411;DHT22;700;51.906;8.404;2023-06-22T03:38:40;22.90;99.90
1411;DHT22;700;51.906;8.404;2023-06-22T03:43:43;23.00;99.90
1411;DHT22;700;51.906;8.404;2023-06-22T03:48:44;23.10;99.90
1411;DHT22;700;51.906;8.404;2023-06-22T03:53:44;23.20;99.90
1411;DHT22;700;51.906;8.404;2023-06-22T03:58:45;23.30;99.90
1411;DHT22;700;51.906;8.404;2023-06-22T04:03:48;23.30;99.90
1411;DHT22;700;51.906;8.404;2023-06-22T04:08:51;23.40;99.90
1411;DHT22;700;51.906;8.404;2023-06-22T04:13:52;23.40;99.90
1411;DHT22;700;51.906;8.404;2023-06-22T04:18:52;23.40;99.90
1411;DHT22;700;51.906;8.404;2023-06-22T04:23:53;23.50;99.90
1411;DHT22;700;51.906;8.404;2023-06-22T04:28:54;23.50;99.90
1411;DHT22;700;51.906;8.404;2023-06-22T04:33:56;23.60;99.90
1411;DHT22;700;51.906;8.404;2023-06-22T04:38:56;23.70;99.90
1411;DHT22;700;51.906;8.404;2023-06-22T04:44:00;23.70;99.90
1411;DHT22;700;51.906;8.404;2023-06-22T04:49:00;23.70;99.90
1411;DHT22;700;51.906;8.404;2023-06-22T04:54:07;23.90;99.90
1411;DHT22;700;51.906;8.404;2023-06-22T04:59:10;24.20;99.90
1411;DHT22;700;51.906;8.404;2023-06-22T05:04:15;24.20;99.90
1411;DHT22;700;51.906;8.404;2023-06-22T05:09:17;24.50;99.90
1411;DHT22;700;51.906;8.404;2023-06-22T05:14:20;24.70;99.90
1411;DHT22;700;51.906;8.404;2023-06-22T05:19:21;24.80;99.90
1411;DHT22;700;51.906;8.404;2023-06-22T05:24:21;25.00;99.90
1411;DHT22;700;51.906;8.404;2023-06-22T05:29:24;25.20;99.90
1411;DHT22;700;51.906;8.404;2023-06-22T05:34:27;25.20;99.90
1411;DHT22;700;51.906;8.404;2023-06-22T05:39:28;25.30;99.90
1411;DHT22;700;51.906;8.404;2023-06-22T05:44:33;25.40;99.90
1411;DHT22;700;51.906;8.404;2023-06-22T05:49:34;25.50;99.90
1411;DHT22;700;51.906;8.404;2023-06-22T05:54:37;25.70;99.90
1411;DHT22;700;51.906;8.404;2023-06-22T05:59:42;25.90;99.90
1411;DHT22;700;51.906;8.404;2023-06-22T06:04:42;26.10;99.90
1411;DHT22;700;51.906;8.404;2023-06-22T06:09:43;26.20;99.90
1411;DHT22;700;51.906;8.404;2023-06-22T06:14:46;26.10;99.90
1411;DHT22;700;51.906;8.404;2023-06-22T06:19:47;26.20;99.90
1411;DHT22;700;51.906;8.404;2023-06-22T06:24:48;26.20;99.90
1411;DHT22;700;51.906;8.404;2023-06-22T06:29:49;26.10;99.90
1411;DHT22;700;51.906;8.404;2023-06-22T06:34:49;26.50;99.90
1411;DHT22;700;51.906;8.404;2023-06-22T06:39:52;26.60;99.90
1411;DHT22;700;51.906;8.404;2023-06-22T06:44:55;26.60;99.90
1411;DHT22;700;51.906;8.404;2023-06-22T06:49:55;27.00;99.90
1411;DHT22;700;51.906;8.404;2023-06-22T06:54:56;27.00;99.90
1411;DHT22;700;51.906;8.404;2023-06-22T06:59:57;27.00;99.90
1411;DHT22;700;51.906;8.404;2023-06-22T07:04:58;27.10;99.90
1411;DHT22;700;51.906;8.404;2023-06-22T07:10:01;27.00;99.90
1411;DHT22;700;51.906;8.404;2023-06-22T07:15:05;26.90;99.90
1411;DHT22;700;51.906;8.404;2023-06-22T07:20:11;26.50;99.90
1411;DHT22;700;51.906;8.404;2023-06-22T07:25:14;25.90;99.90
1411;DHT22;700;51.906;8.404;2023-06-22T07:30:15;25.90;99.90
1411;DHT22;700;51.906;8.404;2023-06-22T07:35:16;25.80;99.90
1411;DHT22;700;51.906;8.404;2023-06-22T07:40:19;25.50;99.90
1411;DHT22;700;51.906;8.404;2023-06-22T07:45:20;25.60;99.90
1411;DHT22;700;51.906;8.404;2023-06-22T07:50:21;26.00;99.90
1411;DHT22;700;51.906;8.404;2023-06-22T07:55:21;26.00;99.90
1411;DHT22;700;51.906;8.404;2023-06-22T08:00:22;26.60;99.90
1411;DHT22;700;51.906;8.404;2023-06-22T08:05:23;26.50;99.90
1411;DHT22;700;51.906;8.404;2023-06-22T08:10:24;26.90;99.90
1411;DHT22;700;51.906;8.404;2023-06-22T08:15:26;27.20;99.90
1411;DHT22;700;51.906;8.404;2023-06-22T08:20:27;27.60;99.90
1411;DHT22;700;51.906;8.404;2023-06-22T08:25:27;28.00;99.90
1411;DHT22;700;51.906;8.404;2023-06-22T08:30:28;28.40;99.90
1411;DHT22;700;51.906;8.404;2023-06-22T08:35:29;28.60;99.90
1411;DHT22;700;51.906;8.404;2023-06-22T08:40:29;28.90;99.90
1411;DHT22;700;51.906;8.404;2023-06-22T08:45:30;28.80;99.90
1411;DHT22;700;51.906;8.404;2023-06-22T08:50:31;29.40;99.90
1411;DHT22;700;51.906;8.404;2023-06-22T08:55:34;29.60;99.90
1411;DHT22;700;51.906;8.404;2023-06-22T09:00:34;30.30;99.90
1411;DHT22;700;51.906;8.404;2023-06-22T09:05:41;30.70;99.90
1411;DHT22;700;51.906;8.404;2023-06-22T09:10:41;30.50;99.90
1411;DHT22;700;51.906;8.404;2023-06-22T09:15:42;30.70;99.90
1411;DHT22;700;51.906;8.404;2023-06-22T09:20:45;31.30;99.90
1411;DHT22;700;51.906;8.404;2023-06-22T09:25:46;31.50;99.90
1411;DHT22;700;51.906;8.404;2023-06-22T09:30:48;31.20;99.90
1411;DHT22;700;51.906;8.404;2023-06-22T09:35:48;30.70;99.90
1411;DHT22;700;51.906;8.404;2023-06-22T09:40:49;31.20;99.90
1411;DHT22;700;51.906;8.404;2023-06-22T09:45:50;32.00;99.90
1411;DHT22;700;51.906;8.404;2023-06-22T09:50:53;32.20;99.90
1411;DHT22;700;51.906;8.404;2023-06-22T09:55:54;32.90;99.90
1411;DHT22;700;51.906;8.404;2023-06-22T10:00:57;33.70;99.90
1411;DHT22;700;51.906;8.404;2023-06-22T10:05:58;34.50;99.40
1411;DHT22;700;51.906;8.404;2023-06-22T10:11:01;35.40;96.90
1411;DHT22;700;51.906;8.404;2023-06-22T10:16:01;36.40;95.00
1411;DHT22;700;51.906;8.404;2023-06-22T10:21:05;37.40;92.90
1411;DHT22;700;51.906;8.404;2023-06-22T10:26:05;38.60;88.10
1411;DHT22;700;51.906;8.404;2023-06-22T10:31:06;39.70;79.30
1411;DHT22;700;51.906;8.404;2023-06-22T10:36:11;39.90;75.10
1411;DHT22;700;51.906;8.404;2023-06-22T10:41:14;40.50;68.70
1411;DHT22;700;51.906;8.404;2023-06-22T10:46:15;41.80;63.00
1411;DHT22;700;51.906;8.404;2023-06-22T10:51:18;41.00;61.00
1411;DHT22;700;51.906;8.404;2023-06-22T10:56:18;39.90;62.00
1411;DHT22;700;51.906;8.404;2023-06-22T11:01:20;39.20;62.40
1411;DHT22;700;51.906;8.404;2023-06-22T11:06:21;38.70;63.90
1411;DHT22;700;51.906;8.404;2023-06-22T11:11:21;37.80;66.50
1411;DHT22;700;51.906;8.404;2023-06-22T11:16:22;37.50;68.60
1411;DHT22;700;51.906;8.404;2023-06-22T11:21:22;37.00;69.30
1411;DHT22;700;51.906;8.404;2023-06-22T11:26:23;36.40;71.20
1411;DHT22;700;51.906;8.404;2023-06-22T11:31:24;35.50;75.10
1411;DHT22;700;51.906;8.404;2023-06-22T11:36:28;34.80;79.40
1411;DHT22;700;51.906;8.404;2023-06-22T11:41:33;34.10;79.40
1411;DHT22;700;51.906;8.404;2023-06-22T11:46:34;33.80;83.10
1411;DHT22;700;51.906;8.404;2023-06-22T11:51:35;33.80;85.50
1411;DHT22;700;51.906;8.404;2023-06-22T11:56:35;33.50;85.80
1411;DHT22;700;51.906;8.404;2023-06-22T12:01:38;33.40;87.70
1411;DHT22;700;51.906;8.404;2023-06-22T12:06:39;33.10;88.70
1411;DHT22;700;51.906;8.404;2023-06-22T12:11:44;32.60;90.70
1411;DHT22;700;51.906;8.404;2023-06-22T12:16:45;32.00;92.00
1411;DHT22;700;51.906;8.404;2023-06-22T12:21:45;31.70;95.70
1411;DHT22;700;51.906;8.404;2023-06-22T12:26:51;31.30;98.80
1411;DHT22;700;51.906;8.404;2023-06-22T12:31:52;30.90;99.90
1411;DHT22;700;51.906;8.404;2023-06-22T12:36:53;30.60;99.90
1411;DHT22;700;51.906;8.404;2023-06-22T12:41:57;30.30;99.90
1411;DHT22;700;51.906;8.404;2023-06-22T12:47:00;29.90;99.90
1411;DHT22;700;51.906;8.404;2023-06-22T12:52:01;29.70;99.90
1411;DHT22;700;51.906;8.404;2023-06-22T12:57:02;29.60;99.90
1411;DHT22;700;51.906;8.404;2023-06-22T13:02:03;29.40;99.90
1411;DHT22;700;51.906;8.404;2023-06-22T13:07:04;29.10;99.90
1411;DHT22;700;51.906;8.404;2023-06-22T13:12:08;28.80;99.90
1411;DHT22;700;51.906;8.404;2023-06-22T13:17:13;28.50;99.90
1411;DHT22;700;51.906;8.404;2023-06-22T13:22:31;28.30;99.90
1411;DHT22;700;51.906;8.404;2023-06-22T13:27:32;28.30;99.90
1411;DHT22;700;51.906;8.404;2023-06-22T13:32:33;28.20;99.90
1411;DHT22;700;51.906;8.404;2023-06-22T13:37:34;28.10;99.90
1411;DHT22;700;51.906;8.404;2023-06-22T13:42:35;27.70;99.90
1411;DHT22;700;51.906;8.404;2023-06-22T13:47:36;27.40;99.90
1411;DHT22;700;51.906;8.404;2023-06-22T13:52:36;27.00;99.90
1411;DHT22;700;51.906;8.404;2023-06-22T13:57:37;26.80;99.90
1411;DHT22;700;51.906;8.404;2023-06-22T14:02:38;26.60;99.90
1411;DHT22;700;51.906;8.404;2023-06-22T14:07:42;26.50;99.90
1411;DHT22;700;51.906;8.404;2023-06-22T14:12:43;26.40;99.90
1411;DHT22;700;51.906;8.404;2023-06-22T14:17:46;26.00;99.90
1411;DHT22;700;51.906;8.404;2023-06-22T14:22:49;25.90;99.90
1411;DHT22;700;51.906;8.404;2023-06-22T14:27:49;25.60;99.90
1411;DHT22;700;51.906;8.404;2023-06-22T14:32:52;25.40;99.90
1411;DHT22;700;51.906;8.404;2023-06-22T14:37:53;25.20;99.90
1411;DHT22;700;51.906;8.404;2023-06-22T14:42:53;25.30;99.90
1411;DHT22;700;51.906;8.404;2023-06-22T14:47:57;25.50;99.90
1411;DHT22;700;51.906;8.404;2023-06-22T14:53:00;25.80;99.90
1411;DHT22;700;51.906;8.404;2023-06-22T14:58:00;26.10;99.90
1411;DHT22;700;51.906;8.404;2023-06-22T15:03:08;26.80;99.90
1411;DHT22;700;51.906;8.404;2023-06-22T15:08:11;27.50;99.90
1411;DHT22;700;51.906;8.404;2023-06-22T15:13:12;27.90;99.90
1411;DHT22;700;51.906;8.404;2023-06-22T15:18:14;28.00;99.90
1411;DHT22;700;51.906;8.404;2023-06-22T15:23:17;28.30;99.90
1411;DHT22;700;51.906;8.404;2023-06-22T15:28:20;28.40;99.90
1411;DHT22;700;51.906;8.404;2023-06-22T15:33:21;28.60;99.90
1411;DHT22;700;51.906;8.404;2023-06-22T15:38:22;28.90;99.90
1411;DHT22;700;51.906;8.404;2023-06-22T15:43:25;29.00;99.90
1411;DHT22;700;51.906;8.404;2023-06-22T15:48:28;28.90;99.90
1411;DHT22;700;51.906;8.404;2023-06-22T15:53:31;28.60;99.90
1411;DHT22;700;51.906;8.404;2023-06-22T15:58:33;28.50;99.90
1411;DHT22;700;51.906;8.404;2023-06-22T16:03:34;28.20;99.90
1411;DHT22;700;51.906;8.404;2023-06-22T16:08:35;28.10;99.90
1411;DHT22;700;51.906;8.404;2023-06-22T16:13:38;27.80;99.90
1411;DHT22;700;51.906;8.404;2023-06-22T16:18:39;27.50;99.90
1411;DHT22;700;51.906;8.404;2023-06-22T16:23:47;27.20;99.90
1411;DHT22;700;51.906;8.404;2023-06-22T16:28:47;27.00;99.90
1411;DHT22;700;51.906;8.404;2023-06-22T16:33:50;26.60;99.90
1411;DHT22;700;51.906;8.404;2023-06-22T16:38:54;26.40;99.90
1411;DHT22;700;51.906;8.404;2023-06-22T16:43:57;26.10;99.90
1411;DHT22;700;51.906;8.404;2023-06-22T16:48:57;26.00;99.90
1411;DHT22;700;51.906;8.404;2023-06-22T16:53:59;26.00;99.90
1411;DHT22;700;51.906;8.404;2023-06-22T16:59:01;25.70;99.90
1411;DHT22;700;51.906;8.404;2023-06-22T17:04:10;25.60;99.90
1411;DHT22;700;51.906;8.404;2023-06-22T17:09:13;25.10;99.90
1411;DHT22;700;51.906;8.404;2023-06-22T17:14:14;24.80;99.90
1411;DHT22;700;51.906;8.404;2023-06-22T17:19:15;24.80;99.90
1411;DHT22;700;51.906;8.404;2023-06-22T17:24:16;24.80;99.90
1411;DHT22;700;51.906;8.404;2023-06-22T17:29:19;24.80;99.90
1411;DHT22;700;51.906;8.404;2023-06-22T17:34:24;24.90;99.90
1411;DHT22;700;51.906;8.404;2023-06-22T17:39:27;24.70;99.90
1411;DHT22;700;51.906;8.404;2023-06-22T17:44:33;24.60;99.90
1411;DHT22;700;51.906;8.404;2023-06-22T17:49:34;24.60;99.90
1411;DHT22;700;51.906;8.404;2023-06-22T17:54:35;24.50;99.90
1411;DHT22;700;51.906;8.404;2023-06-22T17:59:38;24.20;99.90
1411;DHT22;700;51.906;8.404;2023-06-22T18:04:39;24.20;99.90
1411;DHT22;700;51.906;8.404;2023-06-22T18:09:43;24.20;99.90
1411;DHT22;700;51.906;8.404;2023-06-22T18:14:44;24.00;99.90
1411;DHT22;700;51.906;8.404;2023-06-22T18:19:45;23.90;99.90
1411;DHT22;700;51.906;8.404;2023-06-22T18:24:52;23.90;99.90
1411;DHT22;700;51.906;8.404;2023-06-22T18:29:55;23.90;99.90
1411;DHT22;700;51.906;8.404;2023-06-22T18:34:57;23.90;99.90
1411;DHT22;700;51.906;8.404;2023-06-22T18:40:00;23.70;99.90
1411;DHT22;700;51.906;8.404;2023-06-22T18:45:02;23.80;99.90
1411;DHT22;700;51.906;8.404;2023-06-22T18:50:05;23.90;99.90
1411;DHT22;700;51.906;8.404;2023-06-22T18:55:11;24.00;99.90
1411;DHT22;700;51.906;8.404;2023-06-22T19:00:14;24.00;99.90
1411;DHT22;700;51.906;8.404;2023-06-22T19:05:17;24.00;99.90
1411;DHT22;700;51.906;8.404;2023-06-22T19:15:41;23.90;99.90
1411;DHT22;700;51.906;8.404;2023-06-22T19:20:45;24.10;99.90
1411;DHT22;700;51.906;8.404;2023-06-22T19:25:46;23.80;99.90
1411;DHT22;700;51.906;8.404;2023-06-22T19:30:47;23.70;99.90
1411;DHT22;700;51.906;8.404;2023-06-22T19:35:55;23.70;99.90
1411;DHT22;700;51.906;8.404;2023-06-22T19:40:57;23.70;99.90
1411;DHT22;700;51.906;8.404;2023-06-22T19:46:00;23.60;99.90
1411;DHT22;700;51.906;8.404;2023-06-22T19:51:05;23.50;99.90
1411;DHT22;700;51.906;8.404;2023-06-22T19:56:08;23.50;99.90
1411;DHT22;700;51.906;8.404;2023-06-22T20:01:11;23.30;99.90
1411;DHT22;700;51.906;8.404;2023-06-22T20:06:15;23.50;99.90
1411;DHT22;700;51.906;8.404;2023-06-22T20:11:27;23.50;99.90
1411;DHT22;700;51.906;8.404;2023-06-22T20:16:34;23.50;99.90
1411;DHT22;700;51.906;8.404;2023-06-22T20:21:47;23.30;99.90
1411;DHT22;700;51.906;8.404;2023-06-22T20:26:48;23.40;99.90
1411;DHT22;700;51.906;8.404;2023-06-22T20:31:48;23.50;99.90
1411;DHT22;700;51.906;8.404;2023-06-22T20:36:49;23.20;99.90
1411;DHT22;700;51.906;8.404;2023-06-22T20:41:52;23.30;99.90
1411;DHT22;700;51.906;8.404;2023-06-22T20:46:54;23.40;99.90
1411;DHT22;700;51.906;8.404;2023-06-22T20:51:55;23.40;99.90
1411;DHT22;700;51.906;8.404;2023-06-22T20:56:58;23.40;99.90
1411;DHT22;700;51.906;8.404;2023-06-22T21:01:58;23.30;99.90
1411;DHT22;700;51.906;8.404;2023-06-22T21:07:01;23.50;99.90
1411;DHT22;700;51.906;8.404;2023-06-22T21:12:03;23.50;99.90
1411;DHT22;700;51.906;8.404;2023-06-22T21:17:04;23.50;99.90
1411;DHT22;700;51.906;8.404;2023-06-22T21:22:05;23.40;99.90
1411;DHT22;700;51.906;8.404;2023-06-22T21:27:08;23.50;99.90
1411;DHT22;700;51.906;8.404;2023-06-22T21:32:08;23.50;99.90
1411;DHT22;700;51.906;8.404;2023-06-22T21:37:11;23.50;99.90
1411;DHT22;700;51.906;8.404;2023-06-22T21:42:16;23.60;99.90
1411;DHT22;700;51.906;8.404;2023-06-22T21:47:18;23.60;99.90
1411;DHT22;700;51.906;8.404;2023-06-22T21:52:22;23.50;99.90
1411;DHT22;700;51.906;8.404;2023-06-22T21:57:31;23.50;99.90
1411;DHT22;700;51.906;8.404;2023-06-22T22:02:34;23.60;99.90
1411;DHT22;700;51.906;8.404;2023-06-22T22:07:37;23.70;99.90
1411;DHT22;700;51.906;8.404;2023-06-22T22:12:38;23.80;99.90
1411;DHT22;700;51.906;8.404;2023-06-22T22:17:38;23.60;99.90
1411;DHT22;700;51.906;8.404;2023-06-22T22:22:39;23.60;99.90
1411;DHT22;700;51.906;8.404;2023-06-22T22:27:40;23.70;99.90
1411;DHT22;700;51.906;8.404;2023-06-22T22:32:43;23.60;99.90
1411;DHT22;700;51.906;8.404;2023-06-22T22:37:47;23.40;99.90
1411;DHT22;700;51.906;8.404;2023-06-22T22:42:48;23.40;99.90
1411;DHT22;700;51.906;8.404;2023-06-22T22:47:53;23.30;99.90
1411;DHT22;700;51.906;8.404;2023-06-22T22:52:54;23.40;99.90
1411;DHT22;700;51.906;8.404;2023-06-22T22:57:57;23.30;99.90
1411;DHT22;700;51.906;8.404;2023-06-22T23:02:57;23.20;99.90
1411;DHT22;700;51.906;8.404;2023-06-22T23:07:58;23.10;99.90
1411;DHT22;700;51.906;8.404;2023-06-22T23:13:04;22.70;99.90
1411;DHT22;700;51.906;8.404;2023-06-22T23:18:07;22.90;99.90
1411;DHT22;700;51.906;8.404;2023-06-22T23:23:09;22.80;99.90
1411;DHT22;700;51.906;8.404;2023-06-22T23:28:10;22.80;99.90
1411;DHT22;700;51.906;8.404;2023-06-22T23:33:14;22.70;99.90
1411;DHT22;700;51.906;8.404;2023-06-22T23:38:14;22.60;99.90
1411;DHT22;700;51.906;8.404;2023-06-22T23:43:16;22.50;99.90
1411;DHT22;700;51.906;8.404;2023-06-22T23:48:21;22.50;99.90
1411;DHT22;700;51.906;8.404;2023-06-22T23:53:28;22.50;99.90
1411;DHT22;700;51.906;8.404;2023-06-22T23:58:31;22.60;99.90
